Terminal Aerodrome Forecast
Issued by NWS Knoxville/Tri Cities, TN

Home | Current Version | Previous Version | Text Only | Print | Product List | Glossary On
Versions: 1 2 3 4 5 6 7 8 9 10 11 12 13 14 15 16 17 18 19 20 21 22 23 24 25 26 27 28 29 30
021
FTUS44 KMRX 051725
TAFTRI
TAF
KTRI 051725Z 0518/0618 33010KT P6SM VCSH OVC040
     FM060000 28007KT 5SM -SHRA BR SCT015 OVC030
     FM060900 27009KT 5SM BR SCT010 OVC020=

USA.gov is the U.S. government's official web portal to all federal, state and local government web resources and services.